sensor_id;sensor_type;location;lat;lon;timestamp;pressure;altitude;pressure_sealevel;temperature;humidity
51287;BME280;37364;46.974;18.916;2022-10-23T00:02:22;153195.06;;;11.30;100.00
51287;BME280;37364;46.974;18.916;2022-10-23T00:04:53;153206.72;;;11.34;100.00
51287;BME280;37364;46.974;18.916;2022-10-23T00:07:27;153211.88;;;11.36;100.00
51287;BME280;37364;46.974;18.916;2022-10-23T00:09:57;153218.41;;;11.39;100.00
51287;BME280;37364;46.974;18.916;2022-10-23T00:12:27;153210.59;;;11.36;100.00
51287;BME280;37364;46.974;18.916;2022-10-23T00:14:58;153213.19;;;11.37;100.00
51287;BME280;37364;46.974;18.916;2022-10-23T00:17:28;153211.88;;;11.36;100.00
51287;BME280;37364;46.974;18.916;2022-10-23T00:20:00;153209.31;;;11.35;100.00
51287;BME280;37364;46.974;18.916;2022-10-23T00:22:34;153215.78;;;11.38;100.00
51287;BME280;37364;46.974;18.916;2022-10-23T00:25:05;153206.72;;;11.34;100.00
51287;BME280;37364;46.974;18.916;2022-10-23T00:27:36;153191.16;;;11.28;100.00
51287;BME280;37364;46.974;18.916;2022-10-23T00:30:11;153198.97;;;11.31;100.00
51287;BME280;37364;46.974;18.916;2022-10-23T00:32:41;153187.28;;;11.26;100.00
51287;BME280;37364;46.974;18.916;2022-10-23T00:35:11;153186.00;;;11.26;100.00
51287;BME280;37364;46.974;18.916;2022-10-23T00:37:44;153179.53;;;11.23;100.00
51287;BME280;37364;46.974;18.916;2022-10-23T00:40:14;153167.84;;;11.19;100.00
51287;BME280;37364;46.974;18.916;2022-10-23T00:42:45;153165.28;;;11.18;100.00
51287;BME280;37364;46.974;18.916;2022-10-23T00:45:21;153171.75;;;11.20;100.00
51287;BME280;37364;46.974;18.916;2022-10-23T00:47:53;153156.19;;;11.14;100.00
51287;BME280;37364;46.974;18.916;2022-10-23T00:50:25;153158.78;;;11.15;100.00
51287;BME280;37364;46.974;18.916;2022-10-23T00:53:01;153160.09;;;11.16;100.00
51287;BME280;37364;46.974;18.916;2022-10-23T00:55:32;153152.31;;;11.13;100.00
51287;BME280;37364;46.974;18.916;2022-10-23T00:58:04;153149.75;;;11.12;100.00
51287;BME280;37364;46.974;18.916;2022-10-23T01:00:45;153131.59;;;11.04;100.00
51287;BME280;37364;46.974;18.916;2022-10-23T01:03:21;153151.03;;;11.12;100.00
51287;BME280;37364;46.974;18.916;2022-10-23T01:05:58;153140.66;;;11.08;100.00
51287;BME280;37364;46.974;18.916;2022-10-23T01:08:36;153143.22;;;11.09;100.00
51287;BME280;37364;46.974;18.916;2022-10-23T01:11:11;153153.59;;;11.13;100.00
51287;BME280;37364;46.974;18.916;2022-10-23T01:13:47;153141.94;;;11.08;100.00
51287;BME280;37364;46.974;18.916;2022-10-23T01:16:25;153147.13;;;11.11;100.00
51287;BME280;37364;46.974;18.916;2022-10-23T01:19:02;153141.94;;;11.08;100.00
51287;BME280;37364;46.974;18.916;2022-10-23T01:21:41;153141.94;;;11.08;100.00
51287;BME280;37364;46.974;18.916;2022-10-23T01:24:29;153132.88;;;11.05;100.00
51287;BME280;37364;46.974;18.916;2022-10-23T01:27:32;153152.31;;;11.13;100.00
51287;BME280;37364;46.974;18.916;2022-10-23T01:30:08;153138.06;;;11.07;100.00
51287;BME280;37364;46.974;18.916;2022-10-23T01:32:45;153127.69;;;11.03;100.00
51287;BME280;37364;46.974;18.916;2022-10-23T01:35:20;153134.22;;;11.05;100.00
51287;BME280;37364;46.974;18.916;2022-10-23T01:38:02;153135.50;;;11.06;100.00
51287;BME280;37364;46.974;18.916;2022-10-23T01:40:39;153132.88;;;11.05;100.00
51287;BME280;37364;46.974;18.916;2022-10-23T01:43:19;153148.41;;;11.11;100.00
51287;BME280;37364;46.974;18.916;2022-10-23T01:45:56;153136.78;;;11.06;100.00
51287;BME280;37364;46.974;18.916;2022-10-23T01:48:30;153145.84;;;11.10;100.00
51287;BME280;37364;46.974;18.916;2022-10-23T01:51:05;153139.38;;;11.07;100.00
51287;BME280;37364;46.974;18.916;2022-10-23T01:53:39;153145.84;;;11.10;100.00
51287;BME280;37364;46.974;18.916;2022-10-23T01:56:18;153145.84;;;11.10;100.00
51287;BME280;37364;46.974;18.916;2022-10-23T01:58:52;153151.03;;;11.12;100.00
51287;BME280;37364;46.974;18.916;2022-10-23T02:01:29;153148.41;;;11.11;100.00
51287;BME280;37364;46.974;18.916;2022-10-23T02:04:02;153139.38;;;11.07;100.00
51287;BME280;37364;46.974;18.916;2022-10-23T02:06:36;153140.66;;;11.08;100.00
51287;BME280;37364;46.974;18.916;2022-10-23T02:09:06;153134.22;;;11.05;100.00
51287;BME280;37364;46.974;18.916;2022-10-23T02:11:41;153136.78;;;11.06;100.00
51287;BME280;37364;46.974;18.916;2022-10-23T02:14:20;153130.31;;;11.04;100.00
51287;BME280;37364;46.974;18.916;2022-10-23T02:16:53;153135.50;;;11.06;100.00
51287;BME280;37364;46.974;18.916;2022-10-23T02:19:30;153132.88;;;11.05;100.00
51287;BME280;37364;46.974;18.916;2022-10-23T02:22:11;153128.97;;;11.03;100.00
51287;BME280;37364;46.974;18.916;2022-10-23T02:24:49;153128.97;;;11.03;100.00
51287;BME280;37364;46.974;18.916;2022-10-23T02:27:24;153134.22;;;11.05;100.00
51287;BME280;37364;46.974;18.916;2022-10-23T02:30:03;153128.97;;;11.03;100.00
51287;BME280;37364;46.974;18.916;2022-10-23T02:32:38;153131.59;;;11.04;100.00
51287;BME280;37364;46.974;18.916;2022-10-23T02:35:12;153128.97;;;11.03;100.00
51287;BME280;37364;46.974;18.916;2022-10-23T02:37:52;153136.78;;;11.06;100.00
51287;BME280;37364;46.974;18.916;2022-10-23T02:40:30;153126.41;;;11.02;100.00
51287;BME280;37364;46.974;18.916;2022-10-23T02:43:12;153127.69;;;11.03;100.00
51287;BME280;37364;46.974;18.916;2022-10-23T02:45:52;153135.50;;;11.06;100.00
51287;BME280;37364;46.974;18.916;2022-10-23T02:48:31;153136.78;;;11.06;100.00
51287;BME280;37364;46.974;18.916;2022-10-23T02:51:10;153128.97;;;11.03;100.00
51287;BME280;37364;46.974;18.916;2022-10-23T02:53:51;153122.53;;;11.01;100.00
51287;BME280;37364;46.974;18.916;2022-10-23T02:56:33;153122.53;;;11.01;100.00
51287;BME280;37364;46.974;18.916;2022-10-23T02:59:12;153117.34;;;10.99;100.00
51287;BME280;37364;46.974;18.916;2022-10-23T03:01:49;153116.06;;;10.98;100.00
51287;BME280;37364;46.974;18.916;2022-10-23T03:04:23;153110.88;;;10.96;100.00
51287;BME280;37364;46.974;18.916;2022-10-23T03:06:55;153113.44;;;10.97;100.00
51287;BME280;37364;46.974;18.916;2022-10-23T03:09:27;153110.88;;;10.96;100.00
51287;BME280;37364;46.974;18.916;2022-10-23T03:11:58;153114.78;;;10.98;100.00
51287;BME280;37364;46.974;18.916;2022-10-23T03:14:31;153117.34;;;10.99;100.00
51287;BME280;37364;46.974;18.916;2022-10-23T03:17:05;153116.06;;;10.98;100.00
51287;BME280;37364;46.974;18.916;2022-10-23T03:19:35;153101.81;;;10.93;100.00
51287;BME280;37364;46.974;18.916;2022-10-23T03:22:05;153100.53;;;10.92;100.00
51287;BME280;37364;46.974;18.916;2022-10-23T03:24:36;153105.69;;;10.94;100.00
51287;BME280;37364;46.974;18.916;2022-10-23T03:27:06;153105.69;;;10.94;100.00
51287;BME280;37364;46.974;18.916;2022-10-23T03:29:37;153106.97;;;10.95;100.00
51287;BME280;37364;46.974;18.916;2022-10-23T03:32:11;153105.69;;;10.94;100.00
51287;BME280;37364;46.974;18.916;2022-10-23T03:34:43;153095.34;;;10.90;100.00
51287;BME280;37364;46.974;18.916;2022-10-23T03:37:13;153094.00;;;10.89;100.00
51287;BME280;37364;46.974;18.916;2022-10-23T03:39:44;153087.56;;;10.87;100.00
51287;BME280;37364;46.974;18.916;2022-10-23T03:42:15;153085.00;;;10.86;100.00
51287;BME280;37364;46.974;18.916;2022-10-23T03:44:46;153081.09;;;10.84;100.00
51287;BME280;37364;46.974;18.916;2022-10-23T03:47:20;153075.91;;;10.82;100.00
51287;BME280;37364;46.974;18.916;2022-10-23T03:49:51;153081.09;;;10.84;100.00
51287;BME280;37364;46.974;18.916;2022-10-23T03:52:22;153070.75;;;10.80;100.00
51287;BME280;37364;46.974;18.916;2022-10-23T03:54:52;153072.03;;;10.81;100.00
51287;BME280;37364;46.974;18.916;2022-10-23T03:57:23;153065.56;;;10.78;100.00
51287;BME280;37364;46.974;18.916;2022-10-23T03:59:53;153057.78;;;10.75;100.00
51287;BME280;37364;46.974;18.916;2022-10-23T04:02:32;153040.97;;;10.68;100.00
51287;BME280;37364;46.974;18.916;2022-10-23T04:05:03;153035.78;;;10.66;100.00
51287;BME280;37364;46.974;18.916;2022-10-23T04:07:34;153022.81;;;10.61;100.00
51287;BME280;37364;46.974;18.916;2022-10-23T04:10:05;153012.47;;;10.57;100.00
51287;BME280;37364;46.974;18.916;2022-10-23T04:12:38;153004.66;;;10.54;100.00
51287;BME280;37364;46.974;18.916;2022-10-23T04:15:09;153003.38;;;10.54;100.00
51287;BME280;37364;46.974;18.916;2022-10-23T04:17:46;153000.81;;;10.53;100.00
51287;BME280;37364;46.974;18.916;2022-10-23T04:20:19;152993.03;;;10.49;100.00
51287;BME280;37364;46.974;18.916;2022-10-23T04:22:50;152977.50;;;10.43;100.00
51287;BME280;37364;46.974;18.916;2022-10-23T04:25:21;152987.88;;;10.47;100.00
51287;BME280;37364;46.974;18.916;2022-10-23T04:27:51;152968.44;;;10.40;100.00
51287;BME280;37364;46.974;18.916;2022-10-23T04:30:22;152977.50;;;10.43;100.00
51287;BME280;37364;46.974;18.916;2022-10-23T04:32:57;152977.50;;;10.43;100.00
51287;BME280;37364;46.974;18.916;2022-10-23T04:35:28;152976.22;;;10.43;100.00
51287;BME280;37364;46.974;18.916;2022-10-23T04:37:58;152977.50;;;10.43;100.00
51287;BME280;37364;46.974;18.916;2022-10-23T04:40:29;152986.59;;;10.47;100.00
51287;BME280;37364;46.974;18.916;2022-10-23T04:43:00;152994.31;;;10.50;100.00
51287;BME280;37364;46.974;18.916;2022-10-23T04:45:36;153000.81;;;10.53;100.00
51287;BME280;37364;46.974;18.916;2022-10-23T04:48:10;152994.31;;;10.50;100.00
51287;BME280;37364;46.974;18.916;2022-10-23T04:51:19;152993.03;;;10.49;100.00
51287;BME280;37364;46.974;18.916;2022-10-23T04:53:52;153002.09;;;10.53;100.00
51287;BME280;37364;46.974;18.916;2022-10-23T04:56:41;152991.75;;;10.49;100.00
51287;BME280;37364;46.974;18.916;2022-10-23T04:59:15;152981.41;;;10.45;100.00
51287;BME280;37364;46.974;18.916;2022-10-23T05:01:47;152976.22;;;10.43;100.00
51287;BME280;37364;46.974;18.916;2022-10-23T05:04:22;152971.06;;;10.41;100.00
51287;BME280;37364;46.974;18.916;2022-10-23T05:07:28;152965.81;;;10.39;100.00
51287;BME280;37364;46.974;18.916;2022-10-23T05:10:17;152958.09;;;10.36;100.00
51287;BME280;37364;46.974;18.916;2022-10-23T05:12:55;152963.25;;;10.38;100.00
51287;BME280;37364;46.974;18.916;2022-10-23T05:15:28;152955.47;;;10.35;100.00
51287;BME280;37364;46.974;18.916;2022-10-23T05:18:03;152965.81;;;10.39;100.00
51287;BME280;37364;46.974;18.916;2022-10-23T05:20:41;152963.25;;;10.38;100.00
51287;BME280;37364;46.974;18.916;2022-10-23T05:23:14;152967.16;;;10.39;100.00
51287;BME280;37364;46.974;18.916;2022-10-23T05:25:58;152967.16;;;10.39;100.00
51287;BME280;37364;46.974;18.916;2022-10-23T05:28:30;152971.06;;;10.41;100.00
51287;BME280;37364;46.974;18.916;2022-10-23T05:31:03;152956.81;;;10.35;100.00
51287;BME280;37364;46.974;18.916;2022-10-23T05:33:41;152939.91;;;10.28;100.00
51287;BME280;37364;46.974;18.916;2022-10-23T05:36:14;152937.34;;;10.27;100.00
51287;BME280;37364;46.974;18.916;2022-10-23T05:38:51;152946.47;;;10.31;100.00
51287;BME280;37364;46.974;18.916;2022-10-23T05:41:22;152951.63;;;10.33;100.00
51287;BME280;37364;46.974;18.916;2022-10-23T05:43:56;152950.31;;;10.33;100.00
51287;BME280;37364;46.974;18.916;2022-10-23T05:46:46;152950.31;;;10.33;100.00
51287;BME280;37364;46.974;18.916;2022-10-23T05:49:24;152960.66;;;10.37;100.00
51287;BME280;37364;46.974;18.916;2022-10-23T05:52:32;152958.09;;;10.36;100.00
51287;BME280;37364;46.974;18.916;2022-10-23T05:55:15;152961.97;;;10.37;100.00
51287;BME280;37364;46.974;18.916;2022-10-23T05:57:48;152961.97;;;10.37;100.00
51287;BME280;37364;46.974;18.916;2022-10-23T06:00:28;152937.34;;;10.27;100.00
51287;BME280;37364;46.974;18.916;2022-10-23T06:03:19;152934.72;;;10.26;100.00
51287;BME280;37364;46.974;18.916;2022-10-23T06:05:49;152929.56;;;10.24;100.00
51287;BME280;37364;46.974;18.916;2022-10-23T06:08:24;152933.44;;;10.26;100.00
51287;BME280;37364;46.974;18.916;2022-10-23T06:10:55;152941.22;;;10.29;100.00
51287;BME280;37364;46.974;18.916;2022-10-23T06:13:25;152969.72;;;10.40;100.00
51287;BME280;37364;46.974;18.916;2022-10-23T06:15:55;152959.38;;;10.36;100.00
51287;BME280;37364;46.974;18.916;2022-10-23T06:18:29;152965.81;;;10.39;100.00
51287;BME280;37364;46.974;18.916;2022-10-23T06:21:08;152994.31;;;10.50;100.00
51287;BME280;37364;46.974;18.916;2022-10-23T06:23:43;152999.50;;;10.52;100.00
51287;BME280;37364;46.974;18.916;2022-10-23T06:26:14;153011.19;;;10.57;100.00
51287;BME280;37364;46.974;18.916;2022-10-23T06:29:14;153012.47;;;10.57;100.00
51287;BME280;37364;46.974;18.916;2022-10-23T06:31:46;153025.44;;;10.62;100.00
51287;BME280;37364;46.974;18.916;2022-10-23T06:34:17;153040.97;;;10.68;100.00
51287;BME280;37364;46.974;18.916;2022-10-23T06:36:47;153053.88;;;10.74;100.00
51287;BME280;37364;46.974;18.916;2022-10-23T06:39:56;153085.00;;;10.86;100.00
51287;BME280;37364;46.974;18.916;2022-10-23T06:42:46;153082.38;;;10.85;100.00
51287;BME280;37364;46.974;18.916;2022-10-23T06:45:39;153112.16;;;10.97;100.00
51287;BME280;37364;46.974;18.916;2022-10-23T06:48:14;153131.59;;;11.04;100.00
51287;BME280;37364;46.974;18.916;2022-10-23T06:50:58;153153.59;;;11.13;100.00
51287;BME280;37364;46.974;18.916;2022-10-23T06:53:38;153189.88;;;11.27;100.00
51287;BME280;37364;46.974;18.916;2022-10-23T06:56:33;153176.91;;;11.22;100.00
51287;BME280;37364;46.974;18.916;2022-10-23T06:59:05;153152.31;;;11.13;100.00
51287;BME280;37364;46.974;18.916;2022-10-23T07:01:37;153139.38;;;11.07;100.00
51287;BME280;37364;46.974;18.916;2022-10-23T07:04:10;153196.34;;;11.30;100.00
51287;BME280;37364;46.974;18.916;2022-10-23T07:06:42;153205.44;;;11.34;100.00
51287;BME280;37364;46.974;18.916;2022-10-23T07:09:13;153176.91;;;11.22;100.00
51287;BME280;37364;46.974;18.916;2022-10-23T07:11:55;153232.63;;;11.44;100.00
51287;BME280;37364;46.974;18.916;2022-10-23T07:14:34;153246.88;;;11.50;100.00
51287;BME280;37364;46.974;18.916;2022-10-23T07:17:05;153230.03;;;11.43;100.00
51287;BME280;37364;46.974;18.916;2022-10-23T07:19:37;153237.78;;;11.46;100.00
51287;BME280;37364;46.974;18.916;2022-10-23T07:22:11;153265.03;;;11.57;100.00
51287;BME280;37364;46.974;18.916;2022-10-23T07:25:08;153296.09;;;11.70;100.00
51287;BME280;37364;46.974;18.916;2022-10-23T07:27:42;153278.00;;;11.62;100.00
51287;BME280;37364;46.974;18.916;2022-10-23T07:30:13;153297.38;;;11.70;100.00
51287;BME280;37364;46.974;18.916;2022-10-23T07:32:49;153362.28;;;11.96;100.00
51287;BME280;37364;46.974;18.916;2022-10-23T07:35:52;153443.91;;;12.28;100.00
51287;BME280;37364;46.974;18.916;2022-10-23T07:38:27;153510.00;;;12.54;100.00
51287;BME280;37364;46.974;18.916;2022-10-23T07:40:58;153543.72;;;12.68;100.00
51287;BME280;37364;46.974;18.916;2022-10-23T07:43:38;153532.06;;;12.63;100.00
51287;BME280;37364;46.974;18.916;2022-10-23T07:46:11;153477.63;;;12.41;100.00
51287;BME280;37364;46.974;18.916;2022-10-23T07:48:42;153497.06;;;12.49;100.00
51287;BME280;37364;46.974;18.916;2022-10-23T07:51:15;153539.81;;;12.66;100.00
51287;BME280;37364;46.974;18.916;2022-10-23T07:53:50;153548.91;;;12.70;100.00
51287;BME280;37364;46.974;18.916;2022-10-23T07:56:54;153580.06;;;12.82;100.00
51287;BME280;37364;46.974;18.916;2022-10-23T07:59:41;153615.06;;;12.96;100.00
51287;BME280;37364;46.974;18.916;2022-10-23T08:02:14;153554.09;;;12.72;100.00
51287;BME280;37364;46.974;18.916;2022-10-23T08:04:47;153525.59;;;12.60;100.00
51287;BME280;37364;46.974;18.916;2022-10-23T08:07:38;153494.44;;;12.48;100.00
51287;BME280;37364;46.974;18.916;2022-10-23T08:10:09;153507.44;;;12.53;100.00
51287;BME280;37364;46.974;18.916;2022-10-23T08:12:42;153616.34;;;12.96;100.00
51287;BME280;37364;46.974;18.916;2022-10-23T08:15:22;153691.56;;;13.26;100.00
51287;BME280;37364;46.974;18.916;2022-10-23T08:18:01;153755.19;;;13.51;100.00
51287;BME280;37364;46.974;18.916;2022-10-23T08:20:38;153744.81;;;13.47;100.00
51287;BME280;37364;46.974;18.916;2022-10-23T08:23:09;153734.44;;;13.43;100.00
51287;BME280;37364;46.974;18.916;2022-10-23T08:25:42;153733.13;;;13.42;100.00
51287;BME280;37364;46.974;18.916;2022-10-23T08:28:15;153821.34;;;13.77;100.00
51287;BME280;37364;46.974;18.916;2022-10-23T08:30:57;153803.22;;;13.70;100.00
51287;BME280;37364;46.974;18.916;2022-10-23T08:33:28;153777.22;;;13.60;100.00
51287;BME280;37364;46.974;18.916;2022-10-23T08:35:58;153830.44;;;13.81;100.00
51287;BME280;37364;46.974;18.916;2022-10-23T08:38:32;153827.88;;;13.80;100.00
51287;BME280;37364;46.974;18.916;2022-10-23T08:41:05;153791.50;;;13.65;100.00
51287;BME280;37364;46.974;18.916;2022-10-23T08:43:55;153868.09;;;13.96;100.00
51287;BME280;37364;46.974;18.916;2022-10-23T08:46:43;153875.84;;;13.99;100.00
51287;BME280;37364;46.974;18.916;2022-10-23T08:49:39;153861.56;;;13.93;100.00
51287;BME280;37364;46.974;18.916;2022-10-23T08:52:16;153908.31;;;14.12;100.00
51287;BME280;37364;46.974;18.916;2022-10-23T08:54:56;153856.38;;;13.91;100.00
51287;BME280;37364;46.974;18.916;2022-10-23T08:57:32;153799.31;;;13.69;100.00
51287;BME280;37364;46.974;18.916;2022-10-23T09:00:13;153762.97;;;13.54;100.00
51287;BME280;37364;46.974;18.916;2022-10-23T09:02:49;153804.50;;;13.71;100.00
51287;BME280;37364;46.974;18.916;2022-10-23T09:05:24;153918.72;;;14.16;100.00
51287;BME280;37364;46.974;18.916;2022-10-23T09:08:10;153896.63;;;14.07;100.00
51287;BME280;37364;46.974;18.916;2022-10-23T09:11:00;153873.28;;;13.98;100.00
51287;BME280;37364;46.974;18.916;2022-10-23T09:13:43;153945.94;;;14.27;100.00
51287;BME280;37364;46.974;18.916;2022-10-23T09:16:24;153984.88;;;14.42;100.00
51287;BME280;37364;46.974;18.916;2022-10-23T09:19:01;153894.03;;;14.06;100.00
51287;BME280;37364;46.974;18.916;2022-10-23T09:21:37;153953.75;;;14.30;100.00
51287;BME280;37364;46.974;18.916;2022-10-23T09:24:13;154005.66;;;14.50;100.00
51287;BME280;37364;46.974;18.916;2022-10-23T09:26:45;153971.94;;;14.37;100.00
51287;BME280;37364;46.974;18.916;2022-10-23T09:29:22;154038.19;;;14.63;100.00
51287;BME280;37364;46.974;18.916;2022-10-23T09:31:55;154021.31;;;14.56;100.00
51287;BME280;37364;46.974;18.916;2022-10-23T09:34:29;153951.13;;;14.29;100.00
51287;BME280;37364;46.974;18.916;2022-10-23T09:37:02;154045.94;;;14.66;100.00
51287;BME280;37364;46.974;18.916;2022-10-23T09:39:35;153888.84;;;14.04;100.00
51287;BME280;37364;46.974;18.916;2022-10-23T09:42:19;153992.69;;;14.45;100.00
51287;BME280;37364;46.974;18.916;2022-10-23T09:44:51;154066.75;;;14.74;100.00
51287;BME280;37364;46.974;18.916;2022-10-23T09:47:26;154117.38;;;14.94;100.00
51287;BME280;37364;46.974;18.916;2022-10-23T09:49:59;154122.59;;;14.96;100.00
51287;BME280;37364;46.974;18.916;2022-10-23T09:52:33;154170.66;;;15.15;100.00
51287;BME280;37364;46.974;18.916;2022-10-23T09:55:18;154183.59;;;15.20;100.00
51287;BME280;37364;46.974;18.916;2022-10-23T09:57:51;154131.69;;;15.00;100.00
51287;BME280;37364;46.974;18.916;2022-10-23T10:00:26;154162.84;;;15.12;100.00
51287;BME280;37364;46.974;18.916;2022-10-23T10:02:58;154127.78;;;14.98;100.00
51287;BME280;37364;46.974;18.916;2022-10-23T10:05:53;154151.16;;;15.08;100.00
51287;BME280;37364;46.974;18.916;2022-10-23T10:08:34;154151.16;;;15.08;100.00
51287;BME280;37364;46.974;18.916;2022-10-23T10:11:12;154103.09;;;14.89;100.00
51287;BME280;37364;46.974;18.916;2022-10-23T10:16:43;154208.28;;;15.30;100.00
51287;BME280;37364;46.974;18.916;2022-10-23T10:19:35;154221.28;;;15.35;100.00
51287;BME280;37364;46.974;18.916;2022-10-23T10:22:23;154212.19;;;15.32;100.00
51287;BME280;37364;46.974;18.916;2022-10-23T10:25:06;154317.47;;;15.73;100.00
51287;BME280;37364;46.974;18.916;2022-10-23T10:27:44;154329.19;;;15.78;100.00
51287;BME280;37364;46.974;18.916;2022-10-23T10:30:20;154369.47;;;15.94;100.00
51287;BME280;37364;46.974;18.916;2022-10-23T10:32:56;154448.75;;;16.25;100.00
51287;BME280;37364;46.974;18.916;2022-10-23T10:35:36;154385.06;;;16.00;100.00
51287;BME280;37364;46.974;18.916;2022-10-23T10:38:30;154444.81;;;16.24;100.00
51287;BME280;37364;46.974;18.916;2022-10-23T10:41:31;154503.31;;;16.47;100.00
51287;BME280;37364;46.974;18.916;2022-10-23T10:47:08;154517.59;;;16.52;100.00
51287;BME280;37364;46.974;18.916;2022-10-23T10:49:54;154565.69;;;16.71;100.00
51287;BME280;37364;46.974;18.916;2022-10-23T10:52:47;154604.75;;;16.87;100.00
51287;BME280;37364;46.974;18.916;2022-10-23T10:55:28;154613.88;;;16.90;100.00
51287;BME280;37364;46.974;18.916;2022-10-23T10:58:04;154599.56;;;16.85;100.00
51287;BME280;37364;46.974;18.916;2022-10-23T11:00:39;154647.69;;;17.04;100.00
51287;BME280;37364;46.974;18.916;2022-10-23T11:03:24;154720.50;;;17.32;100.00
51287;BME280;37364;46.974;18.916;2022-10-23T11:06:04;154681.47;;;17.17;100.00
51287;BME280;37364;46.974;18.916;2022-10-23T11:08:40;154745.19;;;17.42;100.00
51287;BME280;37364;46.974;18.916;2022-10-23T11:11:31;154743.91;;;17.42;100.00
51287;BME280;37364;46.974;18.916;2022-10-23T11:14:02;154682.81;;;17.17;100.00
51287;BME280;37364;46.974;18.916;2022-10-23T11:16:35;154632.09;;;16.97;100.00
51287;BME280;37364;46.974;18.916;2022-10-23T11:19:11;154637.28;;;16.99;100.00
51287;BME280;37364;46.974;18.916;2022-10-23T11:21:46;154668.50;;;17.12;100.00
51287;BME280;37364;46.974;18.916;2022-10-23T11:24:56;154665.88;;;17.11;100.00
51287;BME280;37364;46.974;18.916;2022-10-23T11:27:52;154682.81;;;17.17;100.00
51287;BME280;37364;46.974;18.916;2022-10-23T11:30:37;154686.72;;;17.19;100.00
51287;BME280;37364;46.974;18.916;2022-10-23T11:33:37;154693.19;;;17.22;100.00
51287;BME280;37364;46.974;18.916;2022-10-23T11:36:12;154678.88;;;17.16;100.00
51287;BME280;37364;46.974;18.916;2022-10-23T11:38:47;154699.69;;;17.24;100.00
51287;BME280;37364;46.974;18.916;2022-10-23T11:41:22;154659.38;;;17.08;100.00
51287;BME280;37364;46.974;18.916;2022-10-23T11:43:58;154637.28;;;16.99;100.00
51287;BME280;37364;46.974;18.916;2022-10-23T11:46:33;154654.19;;;17.06;100.00
51287;BME280;37364;46.974;18.916;2022-10-23T11:49:17;154671.06;;;17.13;100.00
51287;BME280;37364;46.974;18.916;2022-10-23T11:51:58;154695.78;;;17.23;100.00
51287;BME280;37364;46.974;18.916;2022-10-23T11:54:29;154730.88;;;17.36;100.00
51287;BME280;37364;46.974;18.916;2022-10-23T11:57:11;154716.63;;;17.31;100.00
51287;BME280;37364;46.974;18.916;2022-10-23T12:00:02;154695.78;;;17.23;100.00
51287;BME280;37364;46.974;18.916;2022-10-23T12:02:41;154712.72;;;17.29;100.00
51287;BME280;37364;46.974;18.916;2022-10-23T12:05:28;154704.88;;;17.26;100.00
51287;BME280;37364;46.974;18.916;2022-10-23T12:08:02;154723.13;;;17.33;100.00
51287;BME280;37364;46.974;18.916;2022-10-23T12:10:35;154755.59;;;17.46;100.00
51287;BME280;37364;46.974;18.916;2022-10-23T12:13:28;154798.53;;;17.63;100.00
51287;BME280;37364;46.974;18.916;2022-10-23T12:16:01;154838.88;;;17.79;100.00
51287;BME280;37364;46.974;18.916;2022-10-23T12:18:44;154829.75;;;17.75;100.00
51287;BME280;37364;46.974;18.916;2022-10-23T12:21:23;154854.53;;;17.85;100.00
51287;BME280;37364;46.974;18.916;2022-10-23T12:24:16;154875.34;;;17.93;100.00
51287;BME280;37364;46.974;18.916;2022-10-23T12:27:05;154924.78;;;18.13;100.00
51287;BME280;37364;46.974;18.916;2022-10-23T12:29:53;154996.41;;;18.41;100.00
51287;BME280;37364;46.974;18.916;2022-10-23T12:32:43;154967.75;;;18.30;100.00
51287;BME280;37364;46.974;18.916;2022-10-23T12:35:26;154970.38;;;18.31;100.00
51287;BME280;37364;46.974;18.916;2022-10-23T12:38:12;154986.00;;;18.37;100.00
51287;BME280;37364;46.974;18.916;2022-10-23T12:40:44;154991.19;;;18.39;100.00
51287;BME280;37364;46.974;18.916;2022-10-23T12:43:26;155032.81;;;18.55;100.00
51287;BME280;37364;46.974;18.916;2022-10-23T12:46:01;155054.97;;;18.64;100.00
51287;BME280;37364;46.974;18.916;2022-10-23T12:48:35;155025.03;;;18.52;100.00
51287;BME280;37364;46.974;18.916;2022-10-23T12:51:22;154970.38;;;18.31;100.00
51287;BME280;37364;46.974;18.916;2022-10-23T12:53:52;154969.03;;;18.30;100.00
51287;BME280;37364;46.974;18.916;2022-10-23T12:56:25;154976.88;;;18.33;100.00
51287;BME280;37364;46.974;18.916;2022-10-23T12:59:01;154956.06;;;18.25;100.00
51287;BME280;37364;46.974;18.916;2022-10-23T13:01:42;154906.59;;;18.06;100.00
51287;BME280;37364;46.974;18.916;2022-10-23T13:04:27;154844.06;;;17.81;100.00
51287;BME280;37364;46.974;18.916;2022-10-23T13:07:01;154827.19;;;17.74;100.00
51287;BME280;37364;46.974;18.916;2022-10-23T13:09:37;154866.28;;;17.90;100.00
51287;BME280;37364;46.974;18.916;2022-10-23T13:12:21;154879.25;;;17.95;100.00
51287;BME280;37364;46.974;18.916;2022-10-23T13:14:56;154905.25;;;18.05;100.00
51287;BME280;37364;46.974;18.916;2022-10-23T13:17:35;154907.88;;;18.06;100.00
51287;BME280;37364;46.974;18.916;2022-10-23T13:20:27;154888.38;;;17.98;100.00
51287;BME280;37364;46.974;18.916;2022-10-23T13:23:00;154851.94;;;17.84;100.00
51287;BME280;37364;46.974;18.916;2022-10-23T13:25:38;154820.66;;;17.72;100.00
51287;BME280;37364;46.974;18.916;2022-10-23T13:28:30;154806.38;;;17.66;100.00
51287;BME280;37364;46.974;18.916;2022-10-23T13:31:06;154788.16;;;17.59;100.00